Time;durP1;ratioP1;P1;durP2;ratioP2;P2;SDS_P1;SDS_P2;PMS_P1;PMS_P2;Temp;Humidity;BMP_temperature;BMP_pressure;BME280_temperature;BME280_humidity;BME280_pressure;Samples;Min_cycle;Max_cycle;Signal;HPM_P1;HPM_P2
2023/12/23 00:00:21;;;;;;;0.10;0.00;;;;;;;8.96;90.07;99349.34;10349384;28;20061;-63
2023/12/23 00:05:23;;;;;;;0.30;0.00;;;;;;;9.06;90.99;99367.94;10350327;28;20512;-63
2023/12/23 00:10:24;;;;;;;1.00;0.10;;;;;;;9.05;90.63;99366.25;10342574;28;20675;-62
2023/12/23 00:15:26;;;;;;;0.70;0.00;;;;;;;9.20;89.58;99390.59;10351219;28;20057;-62
2023/12/23 00:20:29;;;;;;;0.68;0.10;;;;;;;8.97;88.19;99408.56;10347333;28;20664;-63
2023/12/23 00:25:30;;;;;;;0.30;0.08;;;;;;;8.58;87.71;99398.63;10348946;28;20053;-63
2023/12/23 00:30:32;;;;;;;1.33;0.10;;;;;;;8.74;87.35;99437.94;10343318;28;20139;-62
2023/12/23 00:35:34;;;;;;;0.47;0.10;;;;;;;8.85;88.09;99435.19;10342759;28;20065;-62
2023/12/23 00:40:35;;;;;;;1.15;0.10;;;;;;;9.02;87.22;99441.72;10343603;28;20057;-63
2023/12/23 00:45:37;;;;;;;0.40;0.10;;;;;;;8.93;88.31;99454.94;10345206;28;20724;-63
2023/12/23 00:50:38;;;;;;;1.77;0.30;;;;;;;8.93;89.72;99446.97;10346737;28;20065;-63
2023/12/23 00:55:40;;;;;;;1.60;0.10;;;;;;;8.95;89.27;99445.03;10345131;28;20126;-64
2023/12/23 01:00:41;;;;;;;0.40;0.10;;;;;;;8.81;89.57;99444.41;10346311;28;20050;-64
2023/12/23 01:05:43;;;;;;;1.30;0.20;;;;;;;8.84;89.53;99476.00;10340736;28;20516;-63
2023/12/23 01:10:44;;;;;;;1.48;0.10;;;;;;;8.84;89.66;99491.06;10346587;28;20136;-63
2023/12/23 01:15:45;;;;;;;0.77;0.00;;;;;;;8.84;90.11;99489.25;10344530;28;20041;-63
2023/12/23 01:20:47;;;;;;;0.10;0.00;;;;;;;8.80;89.29;99495.81;10340575;28;20060;-63
2023/12/23 01:25:48;;;;;;;0.32;0.10;;;;;;;8.67;90.20;99489.84;10333936;28;20618;-63
2023/12/23 01:30:51;;;;;;;1.02;0.10;;;;;;;8.75;90.69;99503.31;10340611;28;20050;-62
2023/12/23 01:35:55;;;;;;;0.65;0.10;;;;;;;8.81;90.18;99497.50;10343686;28;20127;-63
2023/12/23 01:40:57;;;;;;;0.80;0.10;;;;;;;8.83;89.35;99500.84;10339154;28;20125;-63
2023/12/23 01:45:59;;;;;;;0.90;0.10;;;;;;;8.79;89.28;99502.06;10338745;28;20049;-65
2023/12/23 01:51:01;;;;;;;1.52;0.13;;;;;;;8.75;89.50;99498.03;10339508;28;20059;-63
2023/12/23 01:56:03;;;;;;;0.65;0.00;;;;;;;8.93;89.76;99521.28;10359734;28;20110;-62
2023/12/23 02:01:04;;;;;;;0.50;0.10;;;;;;;8.94;89.87;99521.16;10360442;28;20564;-63
2023/12/23 02:06:06;;;;;;;1.25;0.40;;;;;;;9.00;90.80;99539.22;10343512;28;20112;-63
2023/12/23 02:11:17;;;;;;;1.02;0.20;;;;;;;8.95;90.33;99552.03;10339015;28;20134;-63
2023/12/23 02:16:18;;;;;;;0.85;0.10;;;;;;;8.97;90.97;99533.34;10343260;28;20196;-63
2023/12/23 02:21:20;;;;;;;1.35;0.10;;;;;;;8.73;91.69;99510.56;10340639;28;20050;-64
2023/12/23 02:26:25;;;;;;;0.43;0.10;;;;;;;8.87;92.50;99524.47;10337377;28;20143;-63
2023/12/23 02:31:26;;;;;;;;;;;;;;;8.90;92.21;99532.16;10342695;28;20158;-62
2023/12/23 02:36:28;;;;;;;1.27;0.30;;;;;;;8.82;92.62;99512.41;10341720;28;19997;-63
2023/12/23 02:41:29;;;;;;;0.55;0.10;;;;;;;8.88;93.58;99528.81;10338124;28;20046;-62
2023/12/23 02:46:30;;;;;;;0.88;0.00;;;;;;;8.85;95.07;99520.13;10339720;28;20664;-63
2023/12/23 02:51:32;;;;;;;1.55;0.30;;;;;;;8.96;94.99;99526.34;10340103;28;20041;-64
2023/12/23 02:56:34;;;;;;;0.80;0.20;;;;;;;8.91;96.38;99512.63;10340583;28;20097;-63
2023/12/23 03:01:35;;;;;;;1.23;0.30;;;;;;;8.98;96.31;99505.81;10345520;28;20052;-63
2023/12/23 03:06:36;;;;;;;1.50;0.20;;;;;;;8.89;96.28;99480.03;10341943;28;20054;-63
2023/12/23 03:11:38;;;;;;;1.92;0.40;;;;;;;8.86;96.77;99462.59;10341783;28;20081;-62
2023/12/23 03:16:39;;;;;;;0.88;0.20;;;;;;;8.87;96.75;99450.97;10346027;28;20093;-63
2023/12/23 03:21:43;;;;;;;1.13;0.45;;;;;;;8.89;95.67;99448.19;10339216;28;20522;-62
2023/12/23 03:26:44;;;;;;;0.82;0.20;;;;;;;8.85;95.51;99444.97;10338788;28;20694;-63
2023/12/23 03:31:45;;;;;;;1.60;0.20;;;;;;;8.93;95.27;99449.63;10341307;28;20521;-62
2023/12/23 03:36:47;;;;;;;0.40;0.10;;;;;;;8.96;95.27;99462.63;10338833;28;20143;-63
2023/12/23 03:41:48;;;;;;;0.68;0.10;;;;;;;9.11;95.34;99463.97;10337181;28;20054;-62
2023/12/23 03:46:51;;;;;;;0.50;0.00;;;;;;;9.02;94.57;99457.66;10338681;28;20062;-63
2023/12/23 03:51:53;;;;;;;0.30;0.00;;;;;;;9.00;94.96;99433.03;10336508;28;20054;-63
2023/12/23 03:56:54;;;;;;;1.10;0.10;;;;;;;9.01;95.28;99428.56;10343463;28;20112;-62
2023/12/23 04:01:56;;;;;;;2.03;0.20;;;;;;;9.00;96.14;99432.19;10347383;28;20470;-62
2023/12/23 04:06:57;;;;;;;1.02;0.10;;;;;;;9.06;96.33;99423.69;10340472;28;20684;-62
2023/12/23 04:11:59;;;;;;;2.00;0.10;;;;;;;8.98;97.43;99412.91;10337435;28;20118;-64
2023/12/23 04:17:00;;;;;;;1.45;0.25;;;;;;;8.96;98.76;99409.53;10343818;28;20053;-61
2023/12/23 04:22:04;;;;;;;0.77;0.70;;;;;;;8.68;99.78;99366.84;10343989;28;20180;-62
2023/12/23 04:27:08;;;;;;;0.80;0.20;;;;;;;8.92;100.00;99389.56;10349355;28;20848;-63
2023/12/23 04:32:10;;;;;;;1.48;0.40;;;;;;;8.82;100.00;99377.06;10349265;28;20056;-62
2023/12/23 04:37:12;;;;;;;1.85;0.50;;;;;;;8.91;100.00;99379.91;10355167;28;20044;-64
2023/12/23 04:42:14;;;;;;;1.88;0.52;;;;;;;8.90;100.00;99368.44;10354925;28;20269;-63
2023/12/23 04:47:15;;;;;;;1.63;0.50;;;;;;;8.94;100.00;99371.69;10344505;28;20054;-63
2023/12/23 04:52:17;;;;;;;1.48;0.57;;;;;;;8.91;100.00;99369.31;10351077;28;20053;-64
2023/12/23 04:57:18;;;;;;;3.55;0.95;;;;;;;8.87;100.00;99357.25;10347681;28;20054;-65
2023/12/23 05:02:20;;;;;;;3.72;1.08;;;;;;;8.91;100.00;99353.38;10366950;28;20046;-64
2023/12/23 05:07:22;;;;;;;2.20;1.00;;;;;;;8.92;100.00;99345.28;10357165;28;20153;-63
2023/12/23 05:12:23;;;;;;;2.70;0.60;;;;;;;8.93;100.00;99344.31;10349152;28;20054;-62
2023/12/23 05:17:26;;;;;;;2.40;0.57;;;;;;;8.96;99.73;99336.06;10347541;28;20080;-61
2023/12/23 05:22:28;;;;;;;3.10;1.25;;;;;;;8.92;99.22;99320.56;10322459;28;20042;-62
2023/12/23 05:27:29;;;;;;;3.28;1.00;;;;;;;8.95;98.69;99312.31;10356231;28;20403;-63
2023/12/23 05:32:31;;;;;;;1.77;1.08;;;;;;;8.97;99.33;99315.66;10345746;28;20134;-63
2023/12/23 05:37:34;;;;;;;3.90;0.70;;;;;;;9.02;98.98;99313.44;10348757;28;20054;-63
2023/12/23 05:42:35;;;;;;;1.80;0.70;;;;;;;9.05;98.85;99323.78;10346777;28;20046;-63
2023/12/23 05:47:36;;;;;;;3.40;0.65;;;;;;;9.01;99.73;99317.91;10343150;28;20139;-64
2023/12/23 05:52:38;;;;;;;2.70;0.38;;;;;;;9.04;100.00;99322.13;10338611;28;20064;-62
2023/12/23 05:57:40;;;;;;;0.98;0.40;;;;;;;9.01;100.00;99317.09;10342231;28;20038;-63
2023/12/23 06:02:41;;;;;;;2.60;0.45;;;;;;;8.98;100.00;99322.66;10341232;28;20231;-63
2023/12/23 06:07:42;;;;;;;4.55;0.63;;;;;;;8.99;100.00;99319.88;10342768;28;20054;-63
2023/12/23 06:12:44;;;;;;;1.23;0.57;;;;;;;8.91;100.00;99300.28;10340354;28;20045;-63
2023/12/23 06:17:48;;;;;;;3.42;0.93;;;;;;;8.99;100.00;99313.72;10341240;28;20049;-63
2023/12/23 06:22:50;;;;;;;1.45;0.47;;;;;;;8.94;100.00;99294.72;10338774;28;20077;-62
2023/12/23 06:27:52;;;;;;;1.35;0.40;;;;;;;8.84;100.00;99306.16;10340768;28;20053;-63
2023/12/23 06:32:53;;;;;;;1.58;0.40;;;;;;;8.96;100.00;99295.41;10335582;28;20219;-63
2023/12/23 06:37:55;;;;;;;0.98;0.35;;;;;;;8.95;100.00;99291.09;10342415;28;20103;-64
2023/12/23 06:42:57;;;;;;;1.38;0.30;;;;;;;8.96;100.00;99292.75;10342303;28;20657;-64
2023/12/23 06:47:58;;;;;;;1.20;0.20;;;;;;;8.99;100.00;99289.81;10344717;28;20054;-64
2023/12/23 06:53:00;;;;;;;1.48;0.38;;;;;;;8.90;100.00;99272.06;10339180;28;20054;-64
2023/12/23 06:58:02;;;;;;;2.35;0.95;;;;;;;9.03;100.00;99293.88;10335694;28;20064;-63
2023/12/23 07:03:05;;;;;;;1.85;0.20;;;;;;;9.06;100.00;99296.25;10331278;28;20129;-64
2023/12/23 07:08:07;;;;;;;1.88;0.80;;;;;;;9.12;100.00;99301.03;10333281;28;20080;-63
2023/12/23 07:13:10;;;;;;;2.75;0.50;;;;;;;9.00;100.00;99291.50;10334955;28;20710;-62
2023/12/23 07:18:11;;;;;;;1.08;0.20;;;;;;;9.08;100.00;99294.31;10335148;28;20052;-62
2023/12/23 07:23:13;;;;;;;1.10;0.30;;;;;;;9.12;100.00;99302.84;10339835;28;20042;-63
2023/12/23 07:28:15;;;;;;;2.58;0.52;;;;;;;9.15;100.00;99306.06;10334449;28;20095;-64
2023/12/23 07:33:16;;;;;;;1.65;0.32;;;;;;;9.15;100.00;99286.63;10349791;28;20132;-63
2023/12/23 07:38:18;;;;;;;1.67;0.20;;;;;;;9.13;100.00;99300.06;10336777;28;20061;-63
2023/12/23 07:43:20;;;;;;;2.28;0.30;;;;;;;9.10;100.00;99315.44;10333087;28;20136;-63
2023/12/23 07:48:21;;;;;;;2.15;0.68;;;;;;;9.15;100.00;99314.03;10336338;28;20104;-62
2023/12/23 07:53:23;;;;;;;2.25;0.52;;;;;;;9.09;100.00;99319.88;10340967;28;20053;-64
2023/12/23 07:58:24;;;;;;;1.20;0.47;;;;;;;9.07;100.00;99310.38;10351204;28;20108;-62
2023/12/23 08:03:26;;;;;;;1.92;0.30;;;;;;;9.05;100.00;99317.63;10361354;28;20053;-61
2023/12/23 08:08:30;;;;;;;2.13;0.40;;;;;;;9.08;100.00;99315.53;10346072;28;20037;-62
2023/12/23 08:13:32;;;;;;;2.22;0.57;;;;;;;9.08;100.00;99304.91;10346020;28;20860;-63
2023/12/23 08:18:33;;;;;;;2.35;0.20;;;;;;;9.09;100.00;99303.94;10345640;28;20054;-64
2023/12/23 08:23:35;;;;;;;2.05;0.60;;;;;;;9.05;100.00;99305.19;10344521;28;20049;-62
2023/12/23 08:28:37;;;;;;;2.15;0.52;;;;;;;9.04;100.00;99290.25;10352735;28;20492;-62
2023/12/23 08:33:38;;;;;;;2.50;0.30;;;;;;;9.05;100.00;99304.38;10346142;28;20050;-61
2023/12/23 08:38:39;;;;;;;2.10;0.32;;;;;;;8.80;100.00;99278.19;10347016;28;20554;-62
2023/12/23 08:43:45;;;;;;;2.28;0.45;;;;;;;9.06;100.00;99320.16;10352171;28;20077;-62
2023/12/23 08:48:47;;;;;;;1.65;0.22;;;;;;;9.08;100.00;99302.25;10345250;28;20107;-59
2023/12/23 08:53:49;;;;;;;1.30;0.30;;;;;;;9.06;100.00;99319.34;10335597;28;20042;-63
2023/12/23 08:58:50;;;;;;;2.80;0.40;;;;;;;9.06;100.00;99309.53;10309785;28;20054;-63
2023/12/23 09:03:55;;;;;;;2.97;0.40;;;;;;;8.83;100.00;99287.72;10336191;28;20841;-63
2023/12/23 09:08:57;;;;;;;1.63;0.40;;;;;;;9.06;100.00;99312.19;10343384;28;20201;-64
2023/12/23 09:13:59;;;;;;;1.58;0.25;;;;;;;9.11;100.00;99333.03;10331456;28;20779;-61
2023/12/23 09:19:01;;;;;;;1.38;0.28;;;;;;;9.01;100.00;99340.97;10346257;28;20064;-63
2023/12/23 09:24:04;;;;;;;2.58;0.20;;;;;;;9.03;100.00;99346.97;10344122;28;20063;-62
2023/12/23 09:29:06;;;;;;;0.77;0.22;;;;;;;9.02;100.00;99339.97;10334192;28;20132;-64
2023/12/23 09:34:07;;;;;;;1.63;0.22;;;;;;;9.02;100.00;99345.28;10344772;28;20063;-62
2023/12/23 09:39:13;;;;;;;1.75;0.20;;;;;;;8.91;100.00;99326.84;10331823;28;20169;-66
2023/12/23 09:44:21;;;;;;;2.05;0.30;;;;;;;9.06;100.00;99341.41;10335403;28;20046;-61
2023/12/23 09:49:24;;;;;;;1.08;0.10;;;;;;;9.07;100.00;99348.41;10344366;28;20443;-62
2023/12/23 09:54:38;;;;;;;0.93;0.13;;;;;;;9.04;100.00;99359.28;10312623;28;20038;-62
2023/12/23 09:59:40;;;;;;;1.02;0.20;;;;;;;9.06;100.00;99372.41;10331304;28;20495;-62
2023/12/23 10:04:41;;;;;;;0.88;0.32;;;;;;;9.04;100.00;99391.13;10341917;28;20127;-64
2023/12/23 10:09:47;;;;;;;1.60;0.10;;;;;;;8.96;100.00;99367.94;10345449;28;20050;-63
2023/12/23 10:14:53;;;;;;;0.75;0.22;;;;;;;8.94;100.00;99356.59;10340712;28;20222;-62
2023/12/23 10:19:55;;;;;;;0.75;0.10;;;;;;;8.98;100.00;99349.22;10338010;28;20140;-61
2023/12/23 10:24:57;;;;;;;0.28;0.10;;;;;;;9.04;100.00;99343.34;10343065;28;20531;-61
2023/12/23 10:30:02;;;;;;;2.17;0.17;;;;;;;9.02;100.00;99335.53;10342493;28;20049;-64
2023/12/23 10:35:06;;;;;;;0.43;0.10;;;;;;;9.11;100.00;99331.22;10343148;28;20095;-62
2023/12/23 10:40:19;;;;;;;0.80;0.10;;;;;;;9.22;100.00;99324.09;10341296;28;20105;-64
2023/12/23 10:45:21;;;;;;;0.20;0.10;;;;;;;9.24;100.00;99333.59;10344305;28;20061;-62
2023/12/23 10:50:23;;;;;;;0.20;0.00;;;;;;;9.30;100.00;99345.50;10338795;28;20659;-60
2023/12/23 10:55:25;;;;;;;0.43;0.10;;;;;;;9.20;100.00;99341.03;10342490;28;20045;-62
2023/12/23 11:00:26;;;;;;;0.40;0.05;;;;;;;9.30;100.00;99349.00;10342213;28;20057;-60
2023/12/23 11:05:28;;;;;;;0.88;0.10;;;;;;;9.32;100.00;99356.81;10339984;28;20643;-62
2023/12/23 11:10:31;;;;;;;1.80;0.00;;;;;;;9.36;100.00;99361.72;10334104;28;20049;-63
2023/12/23 11:15:36;;;;;;;0.52;0.10;;;;;;;9.41;100.00;99355.97;10341541;28;20357;-60
2023/12/23 11:20:41;;;;;;;0.75;0.10;;;;;;;9.44;100.00;99355.72;10337701;28;20729;-62
2023/12/23 11:25:43;;;;;;;1.25;0.20;;;;;;;9.43;100.00;99367.34;10340026;28;20054;-63
2023/12/23 11:30:53;;;;;;;0.40;0.10;;;;;;;9.43;100.00;99362.00;10346728;28;20136;-62
2023/12/23 11:35:58;;;;;;;1.38;0.17;;;;;;;9.40;100.00;99370.25;10335992;28;20060;-62
2023/12/23 11:41:03;;;;;;;0.30;0.10;;;;;;;9.46;100.00;99375.03;10359607;28;20087;-63
2023/12/23 11:46:04;;;;;;;0.52;0.10;;;;;;;9.50;100.00;99363.16;10334275;28;20054;-63
2023/12/23 11:51:08;;;;;;;0.82;0.13;;;;;;;9.47;100.00;99349.28;10341351;28;20060;-62
2023/12/23 11:56:10;;;;;;;0.80;0.10;;;;;;;9.50;100.00;99349.00;10341932;28;20054;-62
2023/12/23 12:01:11;;;;;;;0.75;0.20;;;;;;;9.56;100.00;99353.75;10339986;28;20061;-62
2023/12/23 12:06:13;;;;;;;0.70;0.20;;;;;;;9.50;100.00;99328.63;10344584;28;20573;-63
2023/12/23 12:11:17;;;;;;;0.43;0.10;;;;;;;9.60;100.00;99357.00;10344915;28;20127;-60
2023/12/23 12:16:20;;;;;;;0.57;0.30;;;;;;;9.63;100.00;99348.75;10339760;28;20281;-63
2023/12/23 12:21:22;;;;;;;0.77;0.20;;;;;;;9.63;100.00;99346.09;10358860;28;20644;-63
2023/12/23 12:26:24;;;;;;;0.40;0.22;;;;;;;9.68;100.00;99319.91;10344981;28;20049;-63
2023/12/23 12:31:25;;;;;;;0.90;0.22;;;;;;;9.73;99.92;99323.84;10343312;28;20395;-60
2023/12/23 12:36:28;;;;;;;0.77;0.17;;;;;;;9.71;97.65;99324.94;10359223;28;20057;-62
2023/12/23 12:41:37;;;;;;;1.73;0.38;;;;;;;9.78;97.55;99310.13;10319972;28;20143;-62
2023/12/23 12:46:39;;;;;;;1.77;0.90;;;;;;;9.84;96.83;99317.53;10349550;28;20550;-64
2023/12/23 12:51:40;;;;;;;2.17;0.50;;;;;;;9.89;96.55;99328.59;10345850;28;20056;-62
2023/12/23 12:56:42;;;;;;;1.80;0.75;;;;;;;9.88;96.02;99308.31;10332891;28;20806;-62
2023/12/23 13:01:44;;;;;;;1.50;0.30;;;;;;;9.91;96.41;99339.91;10325742;28;20427;-61
2023/12/23 13:06:46;;;;;;;1.98;0.43;;;;;;;9.92;95.58;99354.03;10345339;28;20048;-62
2023/12/23 13:11:47;;;;;;;2.80;0.52;;;;;;;9.92;96.83;99359.34;10346965;28;20057;-60
2023/12/23 13:16:49;;;;;;;1.40;0.47;;;;;;;9.73;96.97;99346.94;10337989;28;20338;-63
2023/12/23 13:21:50;;;;;;;3.72;0.45;;;;;;;9.95;97.23;99385.66;10339363;28;20113;-63
2023/12/23 13:26:53;;;;;;;1.38;0.40;;;;;;;9.99;96.92;99389.72;10316883;28;20061;-64
2023/12/23 13:31:56;;;;;;;2.05;0.40;;;;;;;10.01;95.70;99386.91;10320135;28;20355;-63
2023/12/23 13:36:58;;;;;;;2.58;0.50;;;;;;;10.09;95.67;99398.53;10339285;28;20542;-64
2023/12/23 13:42:04;;;;;;;1.42;0.75;;;;;;;10.15;94.66;99407.78;10346527;28;20050;-63
2023/12/23 13:47:05;;;;;;;3.08;0.63;;;;;;;10.22;95.11;99416.88;10340981;28;20628;-62
2023/12/23 13:52:07;;;;;;;3.55;0.45;;;;;;;10.21;95.97;99428.47;10347719;28;20049;-64
2023/12/23 13:57:09;;;;;;;1.75;0.40;;;;;;;10.21;95.36;99439.13;10337129;28;20053;-63
2023/12/23 14:02:10;;;;;;;1.88;1.30;;;;;;;10.20;95.36;99442.75;10341204;28;20061;-62
2023/12/23 14:07:12;;;;;;;1.38;0.50;;;;;;;10.22;94.46;99459.41;10347508;28;20046;-61
2023/12/23 14:12:13;;;;;;;3.70;0.43;;;;;;;10.22;93.09;99461.22;10345005;28;20098;-63
2023/12/23 14:17:15;;;;;;;2.72;0.70;;;;;;;10.20;92.22;99460.53;10340408;28;20057;-62
2023/12/23 14:22:16;;;;;;;1.63;0.40;;;;;;;10.13;91.65;99457.59;10342220;28;20549;-63
2023/12/23 14:27:19;;;;;;;1.50;0.68;;;;;;;10.22;92.21;99456.75;10338945;28;20133;-62
2023/12/23 14:32:21;;;;;;;1.60;0.43;;;;;;;10.32;91.54;99471.88;10342454;28;20395;-63
2023/12/23 14:37:22;;;;;;;1.63;0.47;;;;;;;10.25;91.16;99472.44;10317537;28;20057;-61
2023/12/23 14:42:28;;;;;;;1.85;0.63;;;;;;;10.24;91.02;99468.09;10337930;28;20045;-63
2023/12/23 14:47:29;;;;;;;1.30;0.60;;;;;;;10.28;90.46;99481.94;10335516;28;20053;-63
2023/12/23 14:52:31;;;;;;;1.17;0.38;;;;;;;10.24;89.76;99481.38;10338498;28;20045;-61
2023/12/23 14:57:32;;;;;;;2.08;0.60;;;;;;;10.22;89.58;99493.13;10336013;28;20506;-63
2023/12/23 15:02:34;;;;;;;0.95;0.32;;;;;;;10.20;88.07;99495.09;10347891;28;20683;-62
2023/12/23 15:07:39;;;;;;;1.25;0.30;;;;;;;10.26;89.00;99514.00;10334182;28;20128;-62
2023/12/23 15:12:44;;;;;;;3.25;0.40;;;;;;;10.21;88.81;99512.75;10340830;28;20801;-63
2023/12/23 15:17:45;;;;;;;0.73;0.20;;;;;;;10.14;89.45;99511.63;10326225;28;20077;-63
2023/12/23 15:22:49;;;;;;;2.15;0.40;;;;;;;10.16;89.73;99536.25;10340963;28;20060;-64
2023/12/23 15:27:50;;;;;;;1.75;0.30;;;;;;;10.17;90.14;99530.78;10335683;28;20045;-63
2023/12/23 15:32:52;;;;;;;3.05;0.60;;;;;;;10.17;91.24;99552.06;10338491;28;20675;-63
2023/12/23 15:37:54;;;;;;;2.13;0.85;;;;;;;10.12;91.51;99551.66;10338971;28;20061;-63
2023/12/23 15:42:56;;;;;;;1.75;0.50;;;;;;;10.12;91.16;99548.13;10338830;28;20064;-62
2023/12/23 15:47:57;;;;;;;3.08;0.50;;;;;;;10.08;90.67;99552.91;10338777;28;20633;-63
2023/12/23 15:53:01;;;;;;;1.15;0.28;;;;;;;10.07;91.18;99565.38;10341286;28;20065;-64
2023/12/23 15:58:04;;;;;;;4.53;0.93;;;;;;;10.07;89.62;99575.13;10322864;28;20728;-63
2023/12/23 16:03:06;;;;;;;1.15;0.32;;;;;;;10.12;89.02;99582.72;10338690;28;20072;-64
2023/12/23 16:08:10;;;;;;;1.88;0.40;;;;;;;10.13;86.93;99563.13;10336690;28;20412;-64
2023/12/23 16:13:13;;;;;;;1.88;1.65;;;;;;;10.19;86.40;99557.25;10329371;28;20229;-62
2023/12/23 16:18:15;;;;;;;1.58;0.25;;;;;;;10.24;85.66;99563.84;10338908;28;20053;-63
2023/12/23 16:23:17;;;;;;;1.70;0.75;;;;;;;10.21;85.67;99556.16;10331842;28;20080;-63
2023/12/23 16:28:18;;;;;;;1.63;0.43;;;;;;;10.16;85.12;99542.41;10324336;28;20095;-60
2023/12/23 16:33:24;;;;;;;1.83;0.30;;;;;;;10.16;85.33;99563.69;10337607;28;20050;-64
2023/12/23 16:38:26;;;;;;;3.10;0.63;;;;;;;10.19;85.21;99579.38;10322675;28;20060;-62
2023/12/23 16:43:27;;;;;;;4.32;1.23;;;;;;;10.19;85.83;99590.03;10346314;28;20046;-62
2023/12/23 16:48:29;;;;;;;1.20;0.35;;;;;;;10.11;87.58;99600.50;10343199;28;20049;-61
2023/12/23 16:53:30;;;;;;;1.52;0.32;;;;;;;10.17;88.15;99613.25;10344579;28;20053;-62
2023/12/23 16:58:34;;;;;;;2.08;0.60;;;;;;;10.14;87.71;99618.00;10344501;28;20053;-62
2023/12/23 17:03:35;;;;;;;2.88;0.60;;;;;;;10.17;87.12;99609.75;10342071;28;20083;-63
2023/12/23 17:08:37;;;;;;;1.50;0.43;;;;;;;10.23;87.71;99610.03;10343395;28;20053;-62
2023/12/23 17:13:39;;;;;;;1.80;0.93;;;;;;;10.32;87.50;99615.53;10341287;28;20137;-62
2023/12/23 17:18:40;;;;;;;3.80;0.75;;;;;;;10.30;87.00;99628.97;10338784;28;20057;-64
2023/12/23 17:23:42;;;;;;;2.63;0.90;;;;;;;10.33;86.41;99622.50;10344058;28;20049;-63
2023/12/23 17:28:43;;;;;;;3.75;0.70;;;;;;;10.24;86.99;99625.03;10345833;28;20204;-62
2023/12/23 17:33:46;;;;;;;3.42;1.08;;;;;;;10.17;88.72;99631.84;10346842;28;20159;-64
2023/12/23 17:38:50;;;;;;;1.10;0.55;;;;;;;10.15;90.61;99641.81;10340370;28;22570;-60
2023/12/23 17:43:52;;;;;;;2.40;0.80;;;;;;;10.11;92.44;99628.91;10339633;28;20076;-62
2023/12/23 17:48:54;;;;;;;1.88;0.50;;;;;;;10.15;93.78;99623.19;10340221;28;20543;-62
2023/12/23 17:53:55;;;;;;;1.95;0.50;;;;;;;10.07;94.27;99620.34;10341189;28;20547;-64
2023/12/23 17:58:56;;;;;;;5.60;1.20;;;;;;;9.99;95.61;99625.50;10348224;28;20541;-62
2023/12/23 18:03:58;;;;;;;1.48;0.70;;;;;;;9.91;96.68;99612.91;10334668;28;20049;-62
2023/12/23 18:09:01;;;;;;;2.83;0.50;;;;;;;9.84;99.46;99615.25;10347298;28;20045;-63
2023/12/23 18:14:02;;;;;;;2.60;0.88;;;;;;;9.85;100.00;99624.09;10336388;28;20835;-62
2023/12/23 18:19:06;;;;;;;1.73;0.50;;;;;;;9.80;100.00;99615.66;10346013;28;20076;-62
2023/12/23 18:24:08;;;;;;;2.75;0.45;;;;;;;9.59;100.00;99566.03;10341658;28;20068;-63
2023/12/23 18:29:09;;;;;;;2.00;0.50;;;;;;;9.83;98.86;99616.25;10341954;28;20059;-63
2023/12/23 18:34:11;;;;;;;2.83;0.40;;;;;;;9.85;99.22;99597.50;10342068;28;20519;-63
2023/12/23 18:39:12;;;;;;;0.88;0.28;;;;;;;9.81;100.00;99607.53;10340225;28;20049;-62
2023/12/23 18:44:14;;;;;;;1.67;0.52;;;;;;;9.69;100.00;99603.31;10345898;28;20137;-63
2023/12/23 18:49:16;;;;;;;1.88;0.45;;;;;;;9.74;100.00;99614.34;10339872;28;20058;-62
2023/12/23 18:54:18;;;;;;;1.85;0.30;;;;;;;9.75;100.00;99624.03;10320989;28;20057;-64
2023/12/23 18:59:19;;;;;;;1.27;0.38;;;;;;;9.78;100.00;99609.63;10345576;28;20110;-61
2023/12/23 19:04:22;;;;;;;2.05;0.30;;;;;;;9.78;100.00;99621.09;10337557;28;20414;-62
2023/12/23 19:09:25;;;;;;;0.75;0.20;;;;;;;9.75;100.00;99626.69;10340143;28;20636;-63
2023/12/23 19:14:26;;;;;;;1.42;0.32;;;;;;;9.77;100.00;99643.31;10334902;28;20046;-61
2023/12/23 19:19:27;;;;;;;1.27;0.20;;;;;;;9.72;100.00;99640.25;10340448;28;20057;-62
2023/12/23 19:24:29;;;;;;;1.75;0.75;;;;;;;9.65;100.00;99596.56;10347154;28;20046;-62
2023/12/23 19:29:32;;;;;;;0.75;0.25;;;;;;;9.78;100.00;99615.78;10343426;28;22215;-62
2023/12/23 19:34:34;;;;;;;0.50;0.10;;;;;;;9.81;99.30;99612.03;10343530;28;20184;-63
2023/12/23 19:39:37;;;;;;;0.63;0.20;;;;;;;9.75;98.39;99608.06;10345260;28;20068;-62
2023/12/23 19:44:38;;;;;;;0.80;0.20;;;;;;;9.84;98.44;99623.22;10345380;28;21213;-63
2023/12/23 19:49:40;;;;;;;1.73;0.85;;;;;;;9.84;98.64;99607.28;10367979;28;20057;-62
2023/12/23 19:54:41;;;;;;;1.58;0.55;;;;;;;9.65;98.37;99601.88;10340187;28;20068;-63
2023/12/23 19:59:43;;;;;;;1.02;0.50;;;;;;;9.89;97.86;99605.06;10347270;28;20096;-63
2023/12/23 20:04:46;;;;;;;1.98;1.13;;;;;;;9.86;97.16;99615.97;10351650;28;20080;-64
2023/12/23 20:09:47;;;;;;;3.20;1.45;;;;;;;9.85;97.34;99622.25;10342015;28;20143;-62
2023/12/23 20:14:49;;;;;;;2.40;1.83;;;;;;;9.83;97.30;99632.19;10347501;28;20087;-65
2023/12/23 20:19:50;;;;;;;1.45;0.50;;;;;;;9.80;97.81;99624.44;10346662;28;20463;-63
2023/12/23 20:24:54;;;;;;;0.40;0.40;;;;;;;9.84;97.72;99628.53;10344308;28;20053;-64
2023/12/23 20:29:58;;;;;;;1.67;0.30;;;;;;;9.63;98.31;99598.53;10355758;28;20085;-61
2023/12/23 20:35:01;;;;;;;;;;;;;;;9.78;98.67;99612.28;10346291;28;20064;-64
2023/12/23 20:40:04;;;;;;;1.77;0.30;;;;;;;9.76;98.96;99620.41;10343803;28;19987;-64
2023/12/23 20:45:06;;;;;;;0.88;0.28;;;;;;;9.71;98.73;99617.28;10343397;28;20135;-62
2023/12/23 20:50:07;;;;;;;0.50;0.20;;;;;;;9.76;99.20;99641.66;10340607;28;20133;-62
2023/12/23 20:55:12;;;;;;;1.40;0.20;;;;;;;9.66;99.63;99636.28;10353157;28;20053;-63
2023/12/23 21:00:17;;;;;;;1.92;0.30;;;;;;;9.68;99.74;99609.59;10341463;28;20053;-61
2023/12/23 21:05:19;;;;;;;;;;;;;;;9.69;99.11;99621.91;10348151;28;20061;-62
2023/12/23 21:10:24;;;;;;;1.55;0.17;;;;;;;9.73;98.85;99626.00;10339364;28;19975;-61
2023/12/23 21:15:25;;;;;;;0.75;0.10;;;;;;;9.75;98.19;99616.06;10346035;28;20081;-62
2023/12/23 21:20:26;;;;;;;0.73;0.20;;;;;;;9.78;97.13;99634.38;10349392;28;20048;-63
2023/12/23 21:25:28;;;;;;;1.27;0.10;;;;;;;9.75;97.08;99618.72;10348667;28;20056;-62
2023/12/23 21:30:31;;;;;;;1.30;0.20;;;;;;;9.74;98.77;99627.66;10323938;28;20105;-63
2023/12/23 21:35:33;;;;;;;0.50;0.20;;;;;;;9.73;99.61;99648.09;10341125;28;20171;-63
2023/12/23 21:40:36;;;;;;;1.73;1.05;;;;;;;9.70;98.96;99642.19;10345513;28;20099;-63
2023/12/23 21:45:37;;;;;;;0.70;0.17;;;;;;;9.64;97.00;99637.41;10346753;28;20160;-61
2023/12/23 21:50:40;;;;;;;1.08;0.35;;;;;;;9.56;95.43;99651.34;10345489;28;20053;-63
2023/12/23 21:55:42;;;;;;;0.73;0.20;;;;;;;9.62;94.48;99657.94;10341903;28;20060;-62
2023/12/23 22:00:47;;;;;;;1.52;0.60;;;;;;;9.51;93.37;99633.13;10343817;28;20371;-62
2023/12/23 22:05:48;;;;;;;0.38;0.20;;;;;;;9.58;93.43;99654.72;10344014;28;20192;-61
2023/12/23 22:10:50;;;;;;;0.90;0.30;;;;;;;9.51;93.27;99651.75;10342346;28;20115;-62
2023/12/23 22:15:52;;;;;;;1.02;0.30;;;;;;;9.55;93.00;99650.50;10342346;28;20107;-62
2023/12/23 22:20:53;;;;;;;1.17;0.20;;;;;;;9.51;92.51;99651.75;10344786;28;20068;-61
2023/12/23 22:25:54;;;;;;;0.55;0.25;;;;;;;9.62;91.88;99660.59;10343754;28;20392;-61
2023/12/23 22:30:56;;;;;;;1.45;0.22;;;;;;;9.66;92.17;99654.06;10349509;28;20061;-61
2023/12/23 22:35:59;;;;;;;0.60;0.20;;;;;;;9.69;91.75;99656.44;10341350;28;20078;-61
2023/12/23 22:41:00;;;;;;;1.33;0.10;;;;;;;9.65;91.82;99666.50;10356958;28;20549;-64
2023/12/23 22:46:06;;;;;;;0.80;0.30;;;;;;;9.68;91.76;99671.56;10355283;28;20053;-61
2023/12/23 22:51:07;;;;;;;1.67;0.20;;;;;;;9.67;91.88;99666.38;10345567;28;20115;-62
2023/12/23 22:56:09;;;;;;;0.55;0.00;;;;;;;9.74;92.66;99675.50;10337924;28;20049;-63
2023/12/23 23:01:14;;;;;;;0.57;0.10;;;;;;;9.69;92.85;99672.41;10342906;28;20171;-60
2023/12/23 23:06:16;;;;;;;2.10;0.35;;;;;;;9.73;93.49;99673.81;10341430;28;20125;-62
2023/12/23 23:11:19;;;;;;;1.58;0.40;;;;;;;9.63;93.96;99646.34;10343128;28;20108;-62
2023/12/23 23:16:21;;;;;;;0.98;0.20;;;;;;;9.72;94.09;99677.44;10342243;28;20052;-63
2023/12/23 23:21:22;;;;;;;0.90;0.30;;;;;;;9.68;94.41;99671.56;10342432;28;20833;-62
2023/12/23 23:26:26;;;;;;;1.93;0.40;;;;;;;9.60;95.24;99651.94;10344775;28;20060;-61
2023/12/23 23:31:28;;;;;;;1.60;0.30;;;;;;;9.75;96.08;99671.03;10337541;28;20046;-61